Time;durP1;ratioP1;P1;durP2;ratioP2;P2;SDS_P1;SDS_P2;PMS_P1;PMS_P2;Temp;Humidity;BMP_temperature;BMP_pressure;BME280_temperature;BME280_humidity;BME280_pressure;Samples;Min_cycle;Max_cycle;Signal;HPM_P1;HPM_P2
2022/01/11 00:02:19;;;;;;;41.10;25.57;;;;;;;1.50;100.00;97281.84;5072903;27;101795;-57
2022/01/11 00:04:46;;;;;;;38.33;24.03;;;;;;;1.58;100.00;97279.19;5075908;27;102337;-57
2022/01/11 00:07:16;;;;;;;35.20;22.87;;;;;;;1.66;100.00;97281.75;5072764;27;102321;-57
2022/01/11 00:09:45;;;;;;;41.13;26.10;;;;;;;1.67;100.00;97280.75;5072886;27;102924;-57
2022/01/11 00:12:12;;;;;;;37.80;24.10;;;;;;;1.72;100.00;97273.19;5072064;27;103173;-57
2022/01/11 00:14:40;;;;;;;37.33;23.90;;;;;;;1.75;100.00;97285.94;5072497;27;101879;-57
2022/01/11 00:17:07;;;;;;;36.70;23.27;;;;;;;1.75;100.00;97285.94;5071148;27;106274;-57
2022/01/11 00:19:34;;;;;;;37.67;23.90;;;;;;;1.73;100.00;97290.53;5070898;27;105660;-57
2022/01/11 00:22:03;;;;;;;35.33;22.20;;;;;;;1.73;100.00;97278.25;5071271;27;101940;-58
2022/01/11 00:24:31;;;;;;;38.67;23.83;;;;;;;1.73;100.00;97286.13;5070771;27;104997;-57
2022/01/11 00:27:01;;;;;;;38.37;23.70;;;;;;;1.65;100.00;97283.53;5074110;27;105665;-58
2022/01/11 00:29:28;;;;;;;42.77;24.37;;;;;;;1.79;100.00;97281.97;5070679;27;105370;-57
2022/01/11 00:32:01;;;;;;;38.33;24.13;;;;;;;1.78;100.00;97289.03;5070541;27;105122;-57
2022/01/11 00:34:39;;;;;;;38.00;25.00;;;;;;;1.76;100.00;97284.97;5072499;27;101691;-57
2022/01/11 00:37:06;;;;;;;36.33;22.73;;;;;;;1.79;100.00;97290.66;5070396;27;105051;-57
2022/01/11 00:39:35;;;;;;;36.93;24.10;;;;;;;1.84;100.00;97293.59;5070332;27;105878;-58
2022/01/11 00:42:02;;;;;;;33.70;22.30;;;;;;;1.86;100.00;97293.41;5070846;27;101851;-57
2022/01/11 00:44:29;;;;;;;38.53;23.33;;;;;;;1.90;100.00;97292.06;5070469;27;105411;-57
2022/01/11 00:46:56;;;;;;;36.40;22.83;;;;;;;1.87;100.00;97289.81;5070292;27;105398;-57
2022/01/11 00:49:24;;;;;;;38.30;22.63;;;;;;;1.85;100.00;97299.63;5074039;27;101929;-57
2022/01/11 00:51:51;;;;;;;36.87;21.90;;;;;;;1.86;100.00;97302.06;5068917;27;105261;-57
2022/01/11 00:54:18;;;;;;;34.07;23.13;;;;;;;1.89;100.00;97300.91;5070566;27;102027;-57
2022/01/11 00:56:46;;;;;;;34.57;22.93;;;;;;;1.89;100.00;97307.00;5070669;27;105165;-57
2022/01/11 00:59:14;;;;;;;32.80;21.17;;;;;;;1.92;100.00;97305.81;5069776;27;105759;-58
2022/01/11 01:01:41;;;;;;;33.23;22.33;;;;;;;1.87;100.00;97308.94;5070510;27;101836;-57
2022/01/11 01:04:09;;;;;;;37.70;24.80;;;;;;;1.80;100.00;97315.09;5070467;27;103946;-57
2022/01/11 01:06:39;;;;;;;35.33;23.40;;;;;;;1.74;100.00;97313.97;5069917;27;105606;-57
2022/01/11 01:09:07;;;;;;;37.03;24.07;;;;;;;1.73;100.00;97306.25;5070454;27;101730;-57
2022/01/11 01:11:38;;;;;;;40.93;24.53;;;;;;;1.70;100.00;97310.03;5073140;27;104981;-57
2022/01/11 01:14:07;;;;;;;38.57;24.50;;;;;;;1.63;100.00;97316.97;5070192;27;101742;-57
2022/01/11 01:16:34;;;;;;;38.67;24.23;;;;;;;1.65;100.00;97317.59;5070293;27;105129;-57
2022/01/11 01:19:30;;;;;;;37.13;23.77;;;;;;;1.71;100.00;97329.22;5062794;27;103530;-56
2022/01/11 01:21:57;;;;;;;41.27;24.37;;;;;;;1.67;100.00;97326.13;5070089;27;102030;-58
2022/01/11 01:24:25;;;;;;;41.33;25.10;;;;;;;1.65;100.00;97330.72;5070084;27;104046;-56
2022/01/11 01:26:52;;;;;;;44.67;25.63;;;;;;;1.68;100.00;97333.00;5069659;27;105230;-57
2022/01/11 01:29:21;;;;;;;42.43;24.33;;;;;;;1.74;100.00;97336.72;5069799;27;101968;-57
2022/01/11 01:31:48;;;;;;;44.10;26.57;;;;;;;1.67;100.00;97334.00;5070111;27;105311;-57
2022/01/11 01:34:15;;;;;;;41.17;25.37;;;;;;;1.63;100.00;97342.38;5073084;27;105035;-57
2022/01/11 01:36:42;;;;;;;42.43;25.63;;;;;;;1.60;100.00;97340.09;5069982;27;105569;-57
2022/01/11 01:39:09;;;;;;;40.87;24.87;;;;;;;1.60;100.00;97346.16;5068786;27;105499;-57
2022/01/11 01:41:41;;;;;;;43.73;25.93;;;;;;;1.57;100.00;97348.28;5069969;27;101790;-57
2022/01/11 01:44:09;;;;;;;38.80;25.20;;;;;;;1.62;100.00;97343.34;5069856;27;105343;-57
2022/01/11 01:46:38;;;;;;;43.33;25.27;;;;;;;1.59;100.00;97346.34;5070656;27;102744;-56
2022/01/11 01:49:06;;;;;;;42.20;25.43;;;;;;;1.56;100.00;97344.03;5069837;27;101880;-57
2022/01/11 01:51:33;;;;;;;40.17;25.30;;;;;;;1.52;100.00;97350.63;5069601;27;105440;-57
2022/01/11 01:54:00;;;;;;;42.90;23.93;;;;;;;1.50;100.00;97358.66;5068572;27;104907;-57
2022/01/11 01:56:28;;;;;;;43.40;25.93;;;;;;;1.55;100.00;97356.34;5073004;27;102191;-56
2022/01/11 01:58:56;;;;;;;40.87;25.50;;;;;;;1.54;100.00;97353.91;5069277;27;105068;-58
2022/01/11 02:01:26;;;;;;;40.37;24.57;;;;;;;1.54;100.00;97349.44;5069488;27;101749;-57
2022/01/11 02:03:55;;;;;;;39.23;24.17;;;;;;;1.57;100.00;97353.53;5069523;27;103775;-57
2022/01/11 02:06:22;;;;;;;38.93;24.43;;;;;;;1.59;100.00;97351.59;5068744;27;105370;-57
2022/01/11 02:08:50;;;;;;;39.10;24.47;;;;;;;1.59;100.00;97348.97;5069521;27;101872;-57
2022/01/11 02:11:19;;;;;;;35.70;23.60;;;;;;;1.55;100.00;97351.13;5069488;27;105018;-57
2022/01/11 02:13:48;;;;;;;41.90;24.83;;;;;;;1.56;100.00;97351.91;5068469;27;103994;-57
2022/01/11 02:16:20;;;;;;;40.23;24.03;;;;;;;1.55;100.00;97355.53;5072787;27;102228;-57
2022/01/11 02:18:49;;;;;;;40.60;23.77;;;;;;;1.50;100.00;97358.66;5068765;27;104107;-55
2022/01/11 02:21:23;;;;;;;40.37;23.87;;;;;;;1.48;100.00;97362.44;5069170;27;101875;-57
2022/01/11 02:23:51;;;;;;;39.33;24.17;;;;;;;1.46;100.00;97361.78;5068951;27;106014;-58
2022/01/11 02:26:20;;;;;;;39.03;25.17;;;;;;;1.49;100.00;97356.22;5068599;27;105464;-57
2022/01/11 02:28:50;;;;;;;39.43;25.20;;;;;;;1.48;100.00;97360.63;5069359;27;101857;-57
2022/01/11 02:31:18;;;;;;;38.33;24.53;;;;;;;1.53;100.00;97362.75;5069315;27;105006;-57
2022/01/11 02:33:51;;;;;;;40.40;23.33;;;;;;;1.59;100.00;97364.69;5068438;27;105409;-57
2022/01/11 02:36:34;;;;;;;38.87;23.53;;;;;;;1.63;100.00;97365.97;5067243;27;101703;-55
2022/01/11 02:39:25;;;;;;;40.00;23.53;;;;;;;1.64;100.00;97352.69;5071857;27;104914;-58
2022/01/11 02:42:00;;;;;;;39.90;23.13;;;;;;;1.65;100.00;97353.50;5068988;27;101810;-57
2022/01/11 02:44:45;;;;;;;37.13;23.13;;;;;;;1.71;100.00;97352.81;5069927;27;103544;-57
2022/01/11 02:47:19;;;;;;;42.67;24.73;;;;;;;1.79;100.00;97358.84;5068439;27;105363;-57
2022/01/11 02:49:48;;;;;;;38.77;23.23;;;;;;;1.85;100.00;97362.56;5068792;27;101724;-58
2022/01/11 02:52:21;;;;;;;35.00;22.90;;;;;;;1.96;100.00;97362.16;5068833;27;104893;-57
2022/01/11 02:55:07;;;;;;;38.53;23.20;;;;;;;1.96;100.00;97367.41;5068463;27;105087;-57
2022/01/11 02:57:38;;;;;;;40.93;24.67;;;;;;;1.98;100.00;97368.09;5068737;27;101784;-57
2022/01/11 03:00:18;;;;;;;35.87;23.47;;;;;;;1.98;100.00;97373.31;5068750;27;105414;-57
2022/01/11 03:02:45;;;;;;;38.40;23.73;;;;;;;1.89;100.00;97377.81;5071653;27;105233;-58
2022/01/11 03:05:14;;;;;;;39.43;23.87;;;;;;;1.93;100.00;97373.03;5068184;27;104973;-57
2022/01/11 03:07:44;;;;;;;38.37;24.33;;;;;;;1.92;100.00;97371.41;5066822;27;105269;-57
2022/01/11 03:10:16;;;;;;;37.67;23.73;;;;;;;1.92;100.00;97374.03;5051835;27;101833;-57
2022/01/11 03:12:49;;;;;;;37.57;24.17;;;;;;;1.95;100.00;97368.41;5068472;27;104544;-56
2022/01/11 03:15:17;;;;;;;35.00;23.37;;;;;;;1.99;100.00;97373.16;5067668;27;105279;-57
2022/01/11 03:17:48;;;;;;;43.50;25.53;;;;;;;1.98;100.00;97379.38;5068557;27;101800;-58
2022/01/11 03:20:15;;;;;;;39.80;23.43;;;;;;;1.95;100.00;97381.53;5068230;27;104975;-57
2022/01/11 03:22:44;;;;;;;40.13;24.53;;;;;;;1.93;100.00;97380.91;5067496;27;105448;-57
2022/01/11 03:25:13;;;;;;;39.20;24.17;;;;;;;2.00;100.00;97387.06;5071793;27;101838;-57
2022/01/11 03:27:42;;;;;;;37.30;22.57;;;;;;;1.97;100.00;97382.19;5067864;27;105079;-56
2022/01/11 03:30:13;;;;;;;36.43;23.97;;;;;;;1.92;100.00;97387.13;5068344;27;101858;-57
2022/01/11 03:32:44;;;;;;;33.57;22.30;;;;;;;1.95;100.00;97397.25;5068427;27;103779;-56
2022/01/11 03:35:17;;;;;;;37.30;22.93;;;;;;;1.95;100.00;97398.09;5067400;27;105710;-57
2022/01/11 03:37:48;;;;;;;36.97;24.03;;;;;;;1.94;100.00;97387.75;5067594;27;102310;-57
2022/01/11 03:40:17;;;;;;;37.83;24.67;;;;;;;1.90;100.00;97396.97;5068221;27;105142;-57
2022/01/11 03:42:45;;;;;;;37.00;23.63;;;;;;;1.91;100.00;97386.31;5067679;27;105229;-57
2022/01/11 03:45:15;;;;;;;37.50;24.33;;;;;;;1.95;100.00;97392.00;5067987;27;101853;-57
2022/01/11 03:47:43;;;;;;;38.73;24.53;;;;;;;1.95;100.00;97395.47;5070913;27;105091;-57
2022/01/11 03:50:11;;;;;;;41.33;24.30;;;;;;;1.94;100.00;97393.84;5068340;27;102025;-57
2022/01/11 03:52:40;;;;;;;38.17;23.87;;;;;;;1.95;100.00;97394.63;5067856;27;105621;-57
2022/01/11 03:55:12;;;;;;;39.20;24.77;;;;;;;1.85;100.00;97394.03;5067538;27;105016;-57
2022/01/11 03:57:46;;;;;;;36.07;23.30;;;;;;;1.82;100.00;97394.41;5067683;27;102222;-56
2022/01/11 04:00:18;;;;;;;38.20;23.73;;;;;;;1.91;100.00;97393.38;5067967;27;105186;-58
2022/01/11 04:02:48;;;;;;;41.77;25.27;;;;;;;1.91;100.00;97388.94;5067423;27;105501;-57
2022/01/11 04:05:19;;;;;;;40.57;24.03;;;;;;;1.84;100.00;97387.16;5067647;27;101756;-56
2022/01/11 04:07:46;;;;;;;37.17;24.23;;;;;;;1.83;100.00;97388.16;5067805;27;105494;-57
2022/01/11 04:10:15;;;;;;;38.80;23.13;;;;;;;1.86;100.00;97391.25;5070453;27;102147;-57
2022/01/11 04:12:42;;;;;;;37.40;24.13;;;;;;;1.85;100.00;97401.91;5067660;27;105109;-55
2022/01/11 04:15:10;;;;;;;35.13;24.40;;;;;;;1.84;100.00;97397.66;5067207;27;104953;-57
2022/01/11 04:17:39;;;;;;;37.07;23.37;;;;;;;1.90;100.00;97391.72;5068015;27;101981;-57
2022/01/11 04:20:07;;;;;;;38.87;24.23;;;;;;;1.81;100.00;97393.56;5071231;27;104921;-58
2022/01/11 04:22:35;;;;;;;39.73;24.27;;;;;;;1.76;100.00;97390.63;5053555;27;104891;-56
2022/01/11 04:25:02;;;;;;;40.20;24.10;;;;;;;1.72;100.00;97399.03;5070993;27;101867;-56
2022/01/11 04:27:33;;;;;;;37.10;24.73;;;;;;;1.76;100.00;97398.50;5070898;27;105126;-57
2022/01/11 04:30:02;;;;;;;43.40;25.67;;;;;;;1.76;100.00;97397.69;5073980;27;105441;-58
2022/01/11 04:32:30;;;;;;;48.40;25.57;;;;;;;1.78;100.00;97396.53;5071001;27;105318;-57
2022/01/11 04:34:58;;;;;;;38.20;25.63;;;;;;;1.81;100.00;97400.63;5070480;27;104913;-57
2022/01/11 04:37:25;;;;;;;41.17;24.20;;;;;;;1.81;100.00;97403.25;5071605;27;101879;-57
2022/01/11 04:39:52;;;;;;;45.13;26.07;;;;;;;1.92;100.00;97411.53;5070634;27;105240;-56
2022/01/11 04:42:19;;;;;;;41.33;25.10;;;;;;;1.88;100.00;97406.81;5070307;27;105189;-56
2022/01/11 04:44:48;;;;;;;42.37;24.70;;;;;;;1.77;100.00;97409.81;5070641;27;101864;-57
2022/01/11 04:47:15;;;;;;;43.77;25.37;;;;;;;1.73;100.00;97404.09;5070524;27;105349;-57
2022/01/11 04:49:42;;;;;;;40.80;24.93;;;;;;;1.69;100.00;97402.81;5070440;27;105334;-57
2022/01/11 04:52:09;;;;;;;40.13;24.93;;;;;;;1.69;100.00;97404.63;5074467;27;101837;-56
2022/01/11 04:54:36;;;;;;;41.27;25.27;;;;;;;1.76;100.00;97410.81;5070214;27;105209;-58
2022/01/11 04:57:04;;;;;;;43.77;26.47;;;;;;;1.73;100.00;97405.91;5070867;27;101832;-57
2022/01/11 04:59:32;;;;;;;40.87;26.90;;;;;;;1.75;100.00;97403.94;5070937;27;103795;-57
2022/01/11 05:02:01;;;;;;;44.00;26.30;;;;;;;1.70;100.00;97411.50;5070291;27;105443;-55
2022/01/11 05:04:28;;;;;;;42.27;25.83;;;;;;;1.76;100.00;97411.63;5070556;27;101973;-59
2022/01/11 05:06:58;;;;;;;41.37;26.77;;;;;;;1.74;100.00;97415.38;5047998;27;104291;-59
2022/01/11 05:09:27;;;;;;;37.63;24.93;;;;;;;1.74;100.00;97424.09;5049325;27;105045;-59
2022/01/11 05:12:01;;;;;;;40.27;24.37;;;;;;;1.81;100.00;97419.00;5046622;27;101990;-57
2022/01/11 05:14:29;;;;;;;41.53;25.50;;;;;;;1.90;100.00;97423.19;5065988;27;104758;-58
2022/01/11 05:16:56;;;;;;;37.53;24.20;;;;;;;1.92;100.00;97426.47;5069529;27;102086;-59
2022/01/11 05:19:26;;;;;;;44.77;26.60;;;;;;;1.93;100.00;97431.56;5070605;27;102425;-60
2022/01/11 05:21:54;;;;;;;45.13;26.83;;;;;;;1.95;100.00;97428.75;5070008;27;105236;-60
2022/01/11 05:24:21;;;;;;;40.67;25.10;;;;;;;1.94;100.00;97441.06;5070503;27;101875;-60
2022/01/11 05:26:53;;;;;;;39.17;25.43;;;;;;;1.98;100.00;97425.78;5070276;27;103781;-59
2022/01/11 05:29:44;;;;;;;42.67;25.23;;;;;;;1.97;100.00;97445.94;5068888;27;105964;-59
2022/01/11 05:32:11;;;;;;;41.27;24.57;;;;;;;1.94;100.00;97435.81;5070176;27;101718;-58
2022/01/11 05:34:43;;;;;;;41.77;24.60;;;;;;;1.98;100.00;97436.28;5070255;27;104986;-58
2022/01/11 05:37:10;;;;;;;42.20;25.63;;;;;;;2.02;100.00;97442.81;5074270;27;102484;-58
2022/01/11 05:39:37;;;;;;;39.37;24.60;;;;;;;1.95;100.00;97439.22;5070113;27;104801;-58
2022/01/11 05:42:06;;;;;;;39.67;24.80;;;;;;;1.94;100.00;97450.72;5069727;27;104046;-58
2022/01/11 05:44:34;;;;;;;35.97;23.27;;;;;;;1.88;100.00;97443.53;5070095;27;101792;-58
2022/01/11 05:47:02;;;;;;;39.20;23.83;;;;;;;1.99;100.00;97453.66;5070064;27;105178;-59
2022/01/11 05:49:48;;;;;;;37.67;23.87;;;;;;;2.04;100.00;97452.16;5069471;27;105245;-58
2022/01/11 05:52:15;;;;;;;41.23;23.43;;;;;;;2.08;100.00;97453.44;5069909;27;101976;-59
2022/01/11 05:54:43;;;;;;;37.40;23.73;;;;;;;2.01;100.00;97457.72;5069854;27;105453;-59
2022/01/11 05:57:10;;;;;;;36.57;23.43;;;;;;;2.03;100.00;97460.19;5069420;27;105187;-59
2022/01/11 05:59:37;;;;;;;35.73;23.50;;;;;;;1.98;100.00;97462.50;5073328;27;101945;-58
2022/01/11 06:02:04;;;;;;;40.60;24.87;;;;;;;1.99;100.00;97464.97;5069260;27;105844;-58
2022/01/11 06:04:31;;;;;;;36.53;23.60;;;;;;;1.98;100.00;97473.00;5069428;27;102121;-58
2022/01/11 06:07:01;;;;;;;35.93;23.30;;;;;;;1.94;100.00;97472.53;5069505;27;104891;-58
2022/01/11 06:10:07;;;;;;;43.50;25.37;;;;;;;1.86;100.00;97471.75;5069054;27;105176;-57
2022/01/11 06:13:05;;;;;;;35.73;22.97;;;;;;;1.81;100.00;97474.84;5069071;27;101837;-58
2022/01/11 06:15:34;;;;;;;37.20;23.27;;;;;;;1.98;100.00;97478.25;5068560;27;104647;-57
2022/01/11 06:18:24;;;;;;;39.90;24.53;;;;;;;1.98;100.00;97478.25;5069169;27;105452;-57
2022/01/11 06:21:07;;;;;;;35.90;22.73;;;;;;;2.08;100.00;97474.41;5062493;27;101875;-57
2022/01/11 06:23:36;;;;;;;37.97;23.17;;;;;;;1.95;100.00;97479.41;5068746;27;105107;-57
2022/01/11 06:26:03;;;;;;;33.47;21.87;;;;;;;1.90;100.00;97480.88;5069596;27;101915;-57
2022/01/11 06:28:30;;;;;;;39.53;22.93;;;;;;;1.82;100.00;97481.75;5069096;27;105255;-57
2022/01/11 06:30:57;;;;;;;40.23;24.40;;;;;;;1.82;100.00;97476.50;5065512;27;105273;-57
2022/01/11 06:33:25;;;;;;;34.60;22.30;;;;;;;1.81;100.00;97479.31;5069175;27;102073;-58
2022/01/11 06:35:51;;;;;;;33.70;22.83;;;;;;;1.86;100.00;97484.84;5068946;27;105253;-57
2022/01/11 06:38:19;;;;;;;34.73;22.70;;;;;;;1.97;100.00;97492.34;5068057;27;105796;-57
2022/01/11 06:41:14;;;;;;;35.63;22.47;;;;;;;1.95;100.00;97496.94;5068857;27;102314;-57
2022/01/11 06:43:42;;;;;;;40.63;24.17;;;;;;;1.98;100.00;97504.47;5071741;27;104858;-57
2022/01/11 06:46:11;;;;;;;39.40;24.13;;;;;;;2.04;100.00;97509.88;5068966;27;102035;-57
2022/01/11 06:48:48;;;;;;;38.17;24.70;;;;;;;2.16;100.00;97512.91;5068936;27;105027;-57
2022/01/11 06:51:14;;;;;;;35.73;23.00;;;;;;;2.15;100.00;97525.25;5068634;27;105550;-58
2022/01/11 06:53:47;;;;;;;37.23;22.80;;;;;;;2.16;100.00;97529.50;5068796;27;101886;-57
2022/01/11 06:56:17;;;;;;;36.67;21.77;;;;;;;2.27;100.00;97531.75;5068911;27;105201;-57
2022/01/11 06:59:24;;;;;;;34.10;22.17;;;;;;;2.03;100.00;97538.91;5068457;27;105084;-58
2022/01/11 07:01:53;;;;;;;34.33;20.40;;;;;;;1.91;100.00;97545.50;5066290;27;101984;-57
2022/01/11 07:04:44;;;;;;;34.07;22.07;;;;;;;1.97;100.00;97537.75;5068731;27;105322;-57
2022/01/11 07:07:27;;;;;;;32.57;22.77;;;;;;;2.01;100.00;97540.84;5071499;27;105527;-57
2022/01/11 07:09:54;;;;;;;33.67;22.40;;;;;;;1.97;100.00;97547.44;5068667;27;104880;-58
2022/01/11 07:12:59;;;;;;;33.80;21.47;;;;;;;1.93;100.00;97549.59;5067991;27;105292;-58
2022/01/11 07:15:28;;;;;;;31.13;21.03;;;;;;;2.05;100.00;97555.28;5068154;27;103424;-57
2022/01/11 07:18:09;;;;;;;39.90;22.20;;;;;;;2.08;100.00;97562.81;5068442;27;104850;-57
2022/01/11 07:20:42;;;;;;;35.13;22.07;;;;;;;2.06;100.00;97555.09;5068063;27;105104;-57
2022/01/11 07:23:10;;;;;;;34.37;22.30;;;;;;;2.08;100.00;97554.94;5068516;27;101827;-57
2022/01/11 07:25:38;;;;;;;35.27;21.90;;;;;;;2.17;100.00;97559.16;5068414;27;104792;-58
2022/01/11 07:28:15;;;;;;;32.90;22.00;;;;;;;2.23;100.00;97554.06;5067863;27;105074;-57
2022/01/11 07:30:46;;;;;;;34.20;21.13;;;;;;;2.24;100.00;97552.25;5071300;27;101852;-59
2022/01/11 07:33:14;;;;;;;35.87;22.20;;;;;;;2.21;100.00;97548.16;5067822;27;105425;-59
2022/01/11 07:35:42;;;;;;;37.43;22.50;;;;;;;2.18;100.00;97545.88;5068474;27;101967;-59
2022/01/11 07:38:09;;;;;;;37.27;23.53;;;;;;;2.15;100.00;97542.78;5067449;27;103873;-59
2022/01/11 07:40:37;;;;;;;36.57;23.53;;;;;;;2.09;100.00;97544.25;5067849;27;105515;-58
2022/01/11 07:43:15;;;;;;;38.17;23.97;;;;;;;2.05;100.00;97548.22;5067864;27;101835;-57
2022/01/11 07:45:58;;;;;;;39.03;24.97;;;;;;;2.14;100.00;97554.25;5067241;27;105017;-65
2022/01/11 07:48:34;;;;;;;43.73;25.37;;;;;;;2.22;100.00;97556.84;5047277;27;105554;-57
2022/01/11 07:51:06;;;;;;;38.73;24.53;;;;;;;2.27;100.00;97554.53;5066530;27;103560;-55
2022/01/11 07:53:36;;;;;;;43.37;28.43;;;;;;;2.38;100.00;97549.72;5069625;27;104984;-59
2022/01/11 07:56:08;;;;;;;42.60;26.50;;;;;;;2.40;100.00;97554.81;5071276;27;101872;-60
2022/01/11 07:58:40;;;;;;;40.07;25.10;;;;;;;2.40;100.00;97552.19;5070890;27;105201;-62
2022/01/11 08:01:13;;;;;;;36.33;23.93;;;;;;;2.31;100.00;97548.78;5071056;27;105154;-57
2022/01/11 08:03:43;;;;;;;38.90;24.63;;;;;;;2.22;100.00;97548.97;5071119;27;101818;-55
2022/01/11 08:06:17;;;;;;;35.50;22.87;;;;;;;2.29;100.00;97553.38;5071723;27;105131;-57
2022/01/11 08:08:55;;;;;;;36.37;23.70;;;;;;;2.31;100.00;97548.78;5070614;27;104286;-58
2022/01/11 08:11:44;;;;;;;34.13;23.27;;;;;;;2.36;100.00;97556.94;5071420;27;101829;-57
2022/01/11 08:14:11;;;;;;;39.03;24.40;;;;;;;2.24;100.00;97557.50;5071280;27;105266;-57
2022/01/11 08:16:42;;;;;;;37.40;24.07;;;;;;;2.16;100.00;97562.78;5074120;27;105762;-67
2022/01/11 08:19:25;;;;;;;34.17;23.33;;;;;;;2.26;100.00;97566.03;5070834;27;105522;-59
2022/01/11 08:21:54;;;;;;;38.33;23.87;;;;;;;2.34;100.00;97566.81;5070371;27;105428;-58
2022/01/11 08:24:23;;;;;;;35.17;23.43;;;;;;;2.43;100.00;97560.53;5070754;27;101902;-58
2022/01/11 08:26:53;;;;;;;33.63;22.27;;;;;;;2.49;100.00;97572.16;5070953;27;104817;-56
2022/01/11 08:29:25;;;;;;;38.37;24.13;;;;;;;2.46;100.00;97577.75;5070474;27;105169;-55
2022/01/11 08:32:00;;;;;;;37.83;23.47;;;;;;;2.55;100.00;97572.28;5065424;27;102350;-57
2022/01/11 08:34:28;;;;;;;42.63;24.43;;;;;;;2.66;100.00;97578.94;5070280;27;104886;-57
2022/01/11 08:36:56;;;;;;;37.90;23.40;;;;;;;2.73;100.00;97569.41;5073408;27;105459;-58
2022/01/11 08:39:30;;;;;;;41.40;24.60;;;;;;;2.86;100.00;97581.00;5070664;27;104914;-58
2022/01/11 08:42:05;;;;;;;39.17;25.07;;;;;;;2.89;100.00;97579.81;5070426;27;105850;-58
2022/01/11 08:44:34;;;;;;;36.00;23.77;;;;;;;2.86;100.00;97580.16;5070707;27;103545;-58
2022/01/11 08:47:04;;;;;;;38.63;23.20;;;;;;;2.79;100.00;97589.72;5070133;27;105388;-57
2022/01/11 08:49:36;;;;;;;38.63;22.90;;;;;;;2.78;100.00;97588.91;5070308;27;105691;-57
2022/01/11 08:52:04;;;;;;;37.80;23.00;;;;;;;2.93;100.00;97588.97;5069970;27;101841;-56
2022/01/11 08:54:33;;;;;;;36.13;22.67;;;;;;;2.91;100.00;97596.22;5070987;27;105364;-55
2022/01/11 08:57:01;;;;;;;40.10;22.77;;;;;;;3.00;100.00;97595.19;5069963;27;105107;-57
2022/01/11 08:59:32;;;;;;;36.83;22.27;;;;;;;2.99;100.00;97591.72;5073916;27;101797;-57
2022/01/11 09:02:05;;;;;;;38.63;22.97;;;;;;;2.80;100.00;97596.63;5068174;27;104892;-57
2022/01/11 09:04:32;;;;;;;33.87;21.73;;;;;;;2.70;100.00;97593.38;5068939;27;102131;-56
2022/01/11 09:07:26;;;;;;;35.30;21.07;;;;;;;2.61;100.00;97599.66;5070646;27;105381;-57
2022/01/11 09:09:56;;;;;;;32.63;21.60;;;;;;;2.37;100.00;97610.25;5070038;27;104763;-56
2022/01/11 09:12:33;;;;;;;37.00;21.37;;;;;;;2.33;100.00;97604.53;5069934;27;101942;-57
2022/01/11 09:15:01;;;;;;;35.87;22.03;;;;;;;2.30;100.00;97611.94;5067222;27;104838;-57
2022/01/11 09:17:48;;;;;;;34.23;21.17;;;;;;;2.36;100.00;97619.13;5070202;27;105792;-56
2022/01/11 09:20:17;;;;;;;35.23;21.27;;;;;;;2.48;100.00;97617.78;5069678;27;102289;-58
2022/01/11 09:22:48;;;;;;;34.13;21.93;;;;;;;2.65;100.00;97620.16;5073028;27;105146;-57
2022/01/11 09:25:17;;;;;;;30.10;20.40;;;;;;;2.60;100.00;97617.22;5070469;27;101941;-58
2022/01/11 09:28:36;;;;;;;31.73;20.27;;;;;;;2.47;100.00;97621.38;5070058;27;104990;-56
2022/01/11 09:31:05;;;;;;;34.73;21.57;;;;;;;2.31;100.00;97622.28;5066611;27;106298;-58
2022/01/11 09:33:34;;;;;;;35.50;21.30;;;;;;;2.25;100.00;97620.31;5059891;27;102301;-58
2022/01/11 09:36:01;;;;;;;33.87;21.43;;;;;;;2.42;100.00;97628.94;5047817;27;105187;-56
2022/01/11 09:38:30;;;;;;;30.50;20.23;;;;;;;2.65;100.00;97624.59;5046482;27;105672;-57
2022/01/11 09:40:58;;;;;;;29.87;19.70;;;;;;;2.69;100.00;97631.16;5049333;27;102122;-57
2022/01/11 09:43:28;;;;;;;29.23;20.20;;;;;;;2.82;100.00;97626.97;5049020;27;105317;-57
2022/01/11 09:46:02;;;;;;;31.03;20.37;;;;;;;2.86;100.00;97622.19;5066776;27;105111;-56
2022/01/11 09:48:34;;;;;;;29.80;18.07;;;;;;;2.59;100.00;97630.53;5068090;27;104634;-55
2022/01/11 09:51:02;;;;;;;26.03;17.57;;;;;;;2.58;100.00;97628.91;5067694;27;105219;-55
2022/01/11 09:53:30;;;;;;;30.13;18.73;;;;;;;2.27;100.00;97628.84;5067435;27;102225;-56
2022/01/11 09:56:04;;;;;;;27.77;18.47;;;;;;;2.23;100.00;97624.06;5068259;27;104781;-55
2022/01/11 09:58:34;;;;;;;27.50;18.20;;;;;;;2.32;100.00;97623.06;5068449;27;105403;-57
2022/01/11 10:01:01;;;;;;;26.70;17.90;;;;;;;2.23;100.00;97619.66;5062712;27;102026;-57
2022/01/11 10:04:00;;;;;;;28.73;19.03;;;;;;;2.36;100.00;97629.63;5058826;27;102290;-56
2022/01/11 10:06:53;;;;;;;25.03;17.07;;;;;;;2.34;100.00;97619.28;5082659;27;105560;-57
2022/01/11 10:09:23;;;;;;;24.50;17.70;;;;;;;2.33;100.00;97614.22;5070614;27;101889;-57
2022/01/11 10:11:52;;;;;;;27.63;18.73;;;;;;;2.53;100.00;97616.28;5068432;27;105560;-56
2022/01/11 10:14:26;;;;;;;28.07;18.17;;;;;;;2.61;100.00;97621.50;5067848;27;102154;-57
2022/01/11 10:17:08;;;;;;;25.60;17.07;;;;;;;2.60;100.00;97627.72;5068177;27;103751;-57
2022/01/11 10:19:39;;;;;;;23.23;16.43;;;;;;;2.41;100.00;97624.69;5067037;27;105262;-55
2022/01/11 10:22:09;;;;;;;24.63;15.47;;;;;;;2.23;100.00;97616.22;5066153;27;101927;-56
2022/01/11 10:24:41;;;;;;;22.77;15.70;;;;;;;2.30;100.00;97620.63;5068885;27;104080;-57
2022/01/11 10:27:18;;;;;;;27.23;17.53;;;;;;;2.50;100.00;97616.63;5062638;27;105421;-56
2022/01/11 10:29:47;;;;;;;23.17;16.07;;;;;;;2.55;100.00;97614.31;5065609;27;101907;-57
2022/01/11 10:32:24;;;;;;;22.93;16.90;;;;;;;2.60;100.00;97614.59;5071411;27;104389;-57
2022/01/11 10:34:59;;;;;;;25.80;16.93;;;;;;;2.63;100.00;97611.63;5067935;27;101985;-56
2022/01/11 10:37:36;;;;;;;26.47;17.90;;;;;;;2.69;100.00;97610.94;5068115;27;104384;-57
2022/01/11 10:40:09;;;;;;;25.13;16.40;;;;;;;2.77;100.00;97607.44;5068176;27;104999;-57
2022/01/11 10:42:41;;;;;;;25.07;17.00;;;;;;;2.84;100.00;97608.41;5068767;27;101925;-56
2022/01/11 10:45:10;;;;;;;24.30;16.80;;;;;;;2.81;100.00;97614.00;5068550;27;104793;-57
2022/01/11 10:47:43;;;;;;;25.83;17.40;;;;;;;2.75;100.00;97614.69;5068012;27;105631;-56
2022/01/11 10:50:15;;;;;;;23.00;15.87;;;;;;;2.68;100.00;97611.13;5068575;27;101931;-54
2022/01/11 10:52:44;;;;;;;20.57;15.10;;;;;;;2.80;100.00;97617.63;5071858;27;105347;-57
2022/01/11 10:55:19;;;;;;;26.30;17.67;;;;;;;2.56;100.00;97615.13;5068796;27;101794;-57
2022/01/11 10:57:51;;;;;;;26.57;16.70;;;;;;;2.42;100.00;97623.69;5068938;27;105491;-56
2022/01/11 11:00:22;;;;;;;25.60;17.37;;;;;;;2.54;100.00;97619.72;5068160;27;105119;-56
2022/01/11 11:02:54;;;;;;;25.83;17.73;;;;;;;2.57;100.00;97620.19;5068875;27;101898;-57
2022/01/11 11:05:29;;;;;;;22.90;16.00;;;;;;;2.56;100.00;97625.63;5068051;27;105557;-57
2022/01/11 11:08:07;;;;;;;26.30;17.30;;;;;;;2.80;100.00;97623.69;5068220;27;103767;-56
2022/01/11 11:10:42;;;;;;;23.90;17.43;;;;;;;2.79;100.00;97624.69;5068366;27;101927;-57
2022/01/11 11:13:18;;;;;;;25.40;16.63;;;;;;;2.86;100.00;97622.19;5068577;27;105254;-56
2022/01/11 11:15:44;;;;;;;21.30;14.73;;;;;;;2.83;100.00;97627.78;5071094;27;105055;-56
2022/01/11 11:18:23;;;;;;;22.83;16.63;;;;;;;2.80;100.00;97615.81;5068228;27;104981;-56
2022/01/11 11:20:52;;;;;;;21.70;16.77;;;;;;;3.02;100.00;97622.94;5049515;27;103817;-55
2022/01/11 11:23:20;;;;;;;23.80;15.97;;;;;;;3.04;100.00;97613.06;5068216;27;102006;-57
2022/01/11 11:25:47;;;;;;;22.40;16.10;;;;;;;3.34;100.00;97616.63;5068472;27;105195;-57
2022/01/11 11:28:15;;;;;;;21.73;15.73;;;;;;;3.18;100.00;97617.53;5068525;27;104981;-55
2022/01/11 11:30:48;;;;;;;21.87;16.83;;;;;;;3.34;100.00;97617.44;5071613;27;101875;-56